sensor_id;sensor_type;location;lat;lon;timestamp;temperature;humidity
8332;DHT22;4203;48.144;14.118;2023-09-30T00:02:03;17.20;99.90
8332;DHT22;4203;48.144;14.118;2023-09-30T00:04:31;17.20;99.90
8332;DHT22;4203;48.144;14.118;2023-09-30T00:06:59;17.30;99.90
8332;DHT22;4203;48.144;14.118;2023-09-30T00:09:26;17.30;99.90
8332;DHT22;4203;48.144;14.118;2023-09-30T00:11:53;17.30;99.90
8332;DHT22;4203;48.144;14.118;2023-09-30T00:14:21;17.40;99.90
8332;DHT22;4203;48.144;14.118;2023-09-30T00:16:50;17.40;99.90
8332;DHT22;4203;48.144;14.118;2023-09-30T00:19:18;17.40;99.90
8332;DHT22;4203;48.144;14.118;2023-09-30T00:21:45;17.40;99.90
8332;DHT22;4203;48.144;14.118;2023-09-30T00:24:12;17.40;99.90
8332;DHT22;4203;48.144;14.118;2023-09-30T00:26:40;17.40;99.90
8332;DHT22;4203;48.144;14.118;2023-09-30T00:29:07;17.40;99.90
8332;DHT22;4203;48.144;14.118;2023-09-30T00:31:36;17.40;99.90
8332;DHT22;4203;48.144;14.118;2023-09-30T00:34:05;17.40;99.90
8332;DHT22;4203;48.144;14.118;2023-09-30T00:36:32;17.40;99.90
8332;DHT22;4203;48.144;14.118;2023-09-30T00:38:59;17.40;99.90
8332;DHT22;4203;48.144;14.118;2023-09-30T00:41:27;17.40;99.90
8332;DHT22;4203;48.144;14.118;2023-09-30T00:43:54;17.30;99.90
8332;DHT22;4203;48.144;14.118;2023-09-30T00:46:26;17.30;99.90
8332;DHT22;4203;48.144;14.118;2023-09-30T00:48:56;17.30;99.90
8332;DHT22;4203;48.144;14.118;2023-09-30T00:51:26;17.40;99.90
8332;DHT22;4203;48.144;14.118;2023-09-30T00:53:57;17.40;99.90
8332;DHT22;4203;48.144;14.118;2023-09-30T00:56:27;17.50;99.90
8332;DHT22;4203;48.144;14.118;2023-09-30T00:58:54;17.50;99.90
8332;DHT22;4203;48.144;14.118;2023-09-30T01:01:22;17.60;99.90
8332;DHT22;4203;48.144;14.118;2023-09-30T01:03:50;17.60;99.90
8332;DHT22;4203;48.144;14.118;2023-09-30T01:06:18;17.60;99.90
8332;DHT22;4203;48.144;14.118;2023-09-30T01:08:47;17.60;99.90
8332;DHT22;4203;48.144;14.118;2023-09-30T01:11:14;17.50;99.90
8332;DHT22;4203;48.144;14.118;2023-09-30T01:13:42;17.50;99.90
8332;DHT22;4203;48.144;14.118;2023-09-30T01:16:10;17.50;99.90
8332;DHT22;4203;48.144;14.118;2023-09-30T01:18:38;17.60;99.90
8332;DHT22;4203;48.144;14.118;2023-09-30T01:21:09;17.50;99.90
8332;DHT22;4203;48.144;14.118;2023-09-30T01:23:38;17.60;99.90
8332;DHT22;4203;48.144;14.118;2023-09-30T01:26:08;17.50;99.90
8332;DHT22;4203;48.144;14.118;2023-09-30T01:28:36;17.50;99.90
8332;DHT22;4203;48.144;14.118;2023-09-30T01:31:03;17.60;99.90
8332;DHT22;4203;48.144;14.118;2023-09-30T01:33:31;17.60;99.90
8332;DHT22;4203;48.144;14.118;2023-09-30T01:35:58;17.70;99.90
8332;DHT22;4203;48.144;14.118;2023-09-30T01:38:26;17.70;99.90
8332;DHT22;4203;48.144;14.118;2023-09-30T01:40:55;17.70;99.90
8332;DHT22;4203;48.144;14.118;2023-09-30T01:43:22;17.70;99.90
8332;DHT22;4203;48.144;14.118;2023-09-30T01:45:49;17.70;99.90
8332;DHT22;4203;48.144;14.118;2023-09-30T01:48:17;17.70;99.90
8332;DHT22;4203;48.144;14.118;2023-09-30T01:50:45;17.60;99.90
8332;DHT22;4203;48.144;14.118;2023-09-30T01:53:13;17.60;99.90
8332;DHT22;4203;48.144;14.118;2023-09-30T01:55:40;17.60;99.90
8332;DHT22;4203;48.144;14.118;2023-09-30T01:58:10;17.50;99.90
8332;DHT22;4203;48.144;14.118;2023-09-30T02:00:37;17.50;99.90
8332;DHT22;4203;48.144;14.118;2023-09-30T02:03:05;17.50;99.90
8332;DHT22;4203;48.144;14.118;2023-09-30T02:05:33;17.40;99.90
8332;DHT22;4203;48.144;14.118;2023-09-30T02:08:02;17.40;99.90
8332;DHT22;4203;48.144;14.118;2023-09-30T02:10:32;17.30;99.90
8332;DHT22;4203;48.144;14.118;2023-09-30T02:13:00;17.30;99.90
8332;DHT22;4203;48.144;14.118;2023-09-30T02:15:29;17.30;99.90
8332;DHT22;4203;48.144;14.118;2023-09-30T02:17:56;17.30;99.90
8332;DHT22;4203;48.144;14.118;2023-09-30T02:20:23;17.30;99.90
8332;DHT22;4203;48.144;14.118;2023-09-30T02:22:51;17.40;99.90
8332;DHT22;4203;48.144;14.118;2023-09-30T02:25:21;17.50;99.90
8332;DHT22;4203;48.144;14.118;2023-09-30T02:27:49;17.50;99.90
8332;DHT22;4203;48.144;14.118;2023-09-30T02:30:17;17.50;99.90
8332;DHT22;4203;48.144;14.118;2023-09-30T02:32:46;17.50;99.90
8332;DHT22;4203;48.144;14.118;2023-09-30T02:35:13;17.40;99.90
8332;DHT22;4203;48.144;14.118;2023-09-30T02:37:41;17.40;99.90
8332;DHT22;4203;48.144;14.118;2023-09-30T02:40:09;17.40;99.90
8332;DHT22;4203;48.144;14.118;2023-09-30T02:42:37;17.30;99.90
8332;DHT22;4203;48.144;14.118;2023-09-30T02:45:06;17.30;99.90
8332;DHT22;4203;48.144;14.118;2023-09-30T02:47:35;17.30;99.90
8332;DHT22;4203;48.144;14.118;2023-09-30T02:50:05;17.30;99.90
8332;DHT22;4203;48.144;14.118;2023-09-30T02:52:34;17.30;99.90
8332;DHT22;4203;48.144;14.118;2023-09-30T02:55:03;17.30;99.90
8332;DHT22;4203;48.144;14.118;2023-09-30T02:57:31;17.40;99.90
8332;DHT22;4203;48.144;14.118;2023-09-30T02:59:58;17.40;99.90
8332;DHT22;4203;48.144;14.118;2023-09-30T03:02:26;17.40;99.90
8332;DHT22;4203;48.144;14.118;2023-09-30T03:04:53;17.40;99.90
8332;DHT22;4203;48.144;14.118;2023-09-30T03:07:22;17.40;99.90
8332;DHT22;4203;48.144;14.118;2023-09-30T03:09:49;17.40;99.90
8332;DHT22;4203;48.144;14.118;2023-09-30T03:12:18;17.40;99.90
8332;DHT22;4203;48.144;14.118;2023-09-30T03:14:46;17.30;99.90
8332;DHT22;4203;48.144;14.118;2023-09-30T03:17:13;17.20;99.90
8332;DHT22;4203;48.144;14.118;2023-09-30T03:19:41;17.20;99.90
8332;DHT22;4203;48.144;14.118;2023-09-30T03:22:08;17.20;99.90
8332;DHT22;4203;48.144;14.118;2023-09-30T03:24:43;17.20;99.90
8332;DHT22;4203;48.144;14.118;2023-09-30T03:27:10;17.20;99.90
8332;DHT22;4203;48.144;14.118;2023-09-30T03:29:37;17.10;99.90
8332;DHT22;4203;48.144;14.118;2023-09-30T03:32:06;17.10;99.90
8332;DHT22;4203;48.144;14.118;2023-09-30T03:34:34;17.10;99.90
8332;DHT22;4203;48.144;14.118;2023-09-30T03:37:02;17.00;99.90
8332;DHT22;4203;48.144;14.118;2023-09-30T03:39:32;17.00;99.90
8332;DHT22;4203;48.144;14.118;2023-09-30T03:42:01;17.00;99.90
8332;DHT22;4203;48.144;14.118;2023-09-30T03:44:29;16.90;99.90
8332;DHT22;4203;48.144;14.118;2023-09-30T03:46:56;16.90;99.90
8332;DHT22;4203;48.144;14.118;2023-09-30T03:49:25;16.90;99.90
8332;DHT22;4203;48.144;14.118;2023-09-30T03:51:52;16.90;99.90
8332;DHT22;4203;48.144;14.118;2023-09-30T03:54:19;17.00;99.90
8332;DHT22;4203;48.144;14.118;2023-09-30T03:56:48;17.00;99.90
8332;DHT22;4203;48.144;14.118;2023-09-30T03:59:16;16.90;99.90
8332;DHT22;4203;48.144;14.118;2023-09-30T04:01:44;16.80;99.90
8332;DHT22;4203;48.144;14.118;2023-09-30T04:04:13;16.80;99.90
8332;DHT22;4203;48.144;14.118;2023-09-30T04:06:40;16.80;99.90
8332;DHT22;4203;48.144;14.118;2023-09-30T04:09:08;16.80;99.90
8332;DHT22;4203;48.144;14.118;2023-09-30T04:11:37;16.80;99.90
8332;DHT22;4203;48.144;14.118;2023-09-30T04:14:05;16.80;99.90
8332;DHT22;4203;48.144;14.118;2023-09-30T04:16:34;16.90;99.90
8332;DHT22;4203;48.144;14.118;2023-09-30T04:19:03;16.90;99.90
8332;DHT22;4203;48.144;14.118;2023-09-30T04:21:30;16.90;99.90
8332;DHT22;4203;48.144;14.118;2023-09-30T04:24:00;16.90;99.90
8332;DHT22;4203;48.144;14.118;2023-09-30T04:26:27;16.90;99.90
8332;DHT22;4203;48.144;14.118;2023-09-30T04:28:55;16.90;99.90
8332;DHT22;4203;48.144;14.118;2023-09-30T04:31:23;16.90;99.90
8332;DHT22;4203;48.144;14.118;2023-09-30T04:33:52;16.90;99.90
8332;DHT22;4203;48.144;14.118;2023-09-30T04:36:20;17.00;99.90
8332;DHT22;4203;48.144;14.118;2023-09-30T04:38:48;17.00;99.90
8332;DHT22;4203;48.144;14.118;2023-09-30T04:41:16;17.00;99.90
8332;DHT22;4203;48.144;14.118;2023-09-30T04:43:44;17.00;99.90
8332;DHT22;4203;48.144;14.118;2023-09-30T04:46:12;17.00;99.90
8332;DHT22;4203;48.144;14.118;2023-09-30T04:48:39;17.00;99.90
8332;DHT22;4203;48.144;14.118;2023-09-30T04:51:09;17.00;99.90
8332;DHT22;4203;48.144;14.118;2023-09-30T04:53:38;17.00;99.90
8332;DHT22;4203;48.144;14.118;2023-09-30T04:56:06;17.00;99.90
8332;DHT22;4203;48.144;14.118;2023-09-30T04:58:33;16.90;99.90
8332;DHT22;4203;48.144;14.118;2023-09-30T05:01:01;16.90;99.90
8332;DHT22;4203;48.144;14.118;2023-09-30T05:03:28;16.90;99.90
8332;DHT22;4203;48.144;14.118;2023-09-30T05:05:56;16.90;99.90
8332;DHT22;4203;48.144;14.118;2023-09-30T05:08:25;16.90;99.90
8332;DHT22;4203;48.144;14.118;2023-09-30T05:10:54;16.80;99.90
8332;DHT22;4203;48.144;14.118;2023-09-30T05:13:22;16.80;99.90
8332;DHT22;4203;48.144;14.118;2023-09-30T05:15:50;16.80;99.90
8332;DHT22;4203;48.144;14.118;2023-09-30T05:18:18;16.80;99.90
8332;DHT22;4203;48.144;14.118;2023-09-30T05:20:45;16.80;99.90
8332;DHT22;4203;48.144;14.118;2023-09-30T05:23:12;16.80;99.90
8332;DHT22;4203;48.144;14.118;2023-09-30T05:25:42;16.80;99.90
8332;DHT22;4203;48.144;14.118;2023-09-30T05:28:09;16.80;99.90
8332;DHT22;4203;48.144;14.118;2023-09-30T05:30:37;16.80;99.90
8332;DHT22;4203;48.144;14.118;2023-09-30T05:33:04;16.80;99.90
8332;DHT22;4203;48.144;14.118;2023-09-30T05:35:32;16.80;99.90
8332;DHT22;4203;48.144;14.118;2023-09-30T05:37:59;16.90;99.90
8332;DHT22;4203;48.144;14.118;2023-09-30T05:40:26;16.90;99.90
8332;DHT22;4203;48.144;14.118;2023-09-30T05:42:58;16.90;99.90
8332;DHT22;4203;48.144;14.118;2023-09-30T05:47:29;16.90;99.90
8332;DHT22;4203;48.144;14.118;2023-09-30T05:48:37;16.90;99.90
8332;DHT22;4203;48.144;14.118;2023-09-30T05:51:05;16.80;99.90
8332;DHT22;4203;48.144;14.118;2023-09-30T05:53:33;16.80;99.90
8332;DHT22;4203;48.144;14.118;2023-09-30T05:56:03;16.70;99.90
8332;DHT22;4203;48.144;14.118;2023-09-30T05:58:32;16.80;99.90
8332;DHT22;4203;48.144;14.118;2023-09-30T06:00:59;16.80;99.90
8332;DHT22;4203;48.144;14.118;2023-09-30T06:03:27;16.80;99.90
8332;DHT22;4203;48.144;14.118;2023-09-30T06:05:55;16.80;99.90
8332;DHT22;4203;48.144;14.118;2023-09-30T06:08:22;16.80;99.90
8332;DHT22;4203;48.144;14.118;2023-09-30T06:10:50;16.80;99.90
8332;DHT22;4203;48.144;14.118;2023-09-30T06:13:17;16.80;99.90
8332;DHT22;4203;48.144;14.118;2023-09-30T06:15:46;16.90;99.90
8332;DHT22;4203;48.144;14.118;2023-09-30T06:18:16;16.90;99.90
8332;DHT22;4203;48.144;14.118;2023-09-30T06:20:43;16.90;99.90
8332;DHT22;4203;48.144;14.118;2023-09-30T06:23:10;16.90;99.90
8332;DHT22;4203;48.144;14.118;2023-09-30T06:25:38;16.90;99.90
8332;DHT22;4203;48.144;14.118;2023-09-30T06:28:05;17.00;99.90
8332;DHT22;4203;48.144;14.118;2023-09-30T06:30:33;17.00;99.90
8332;DHT22;4203;48.144;14.118;2023-09-30T06:33:03;17.00;99.90
8332;DHT22;4203;48.144;14.118;2023-09-30T06:35:32;17.10;99.90
8332;DHT22;4203;48.144;14.118;2023-09-30T06:38:03;17.30;99.90
8332;DHT22;4203;48.144;14.118;2023-09-30T06:40:32;17.30;99.90
8332;DHT22;4203;48.144;14.118;2023-09-30T06:42:59;17.40;99.90
8332;DHT22;4203;48.144;14.118;2023-09-30T06:45:27;17.50;99.90
8332;DHT22;4203;48.144;14.118;2023-09-30T06:47:55;17.50;99.90
8332;DHT22;4203;48.144;14.118;2023-09-30T06:50:24;17.50;99.90
8332;DHT22;4203;48.144;14.118;2023-09-30T06:52:52;17.60;99.90
8332;DHT22;4203;48.144;14.118;2023-09-30T06:55:19;17.70;99.90
8332;DHT22;4203;48.144;14.118;2023-09-30T06:57:46;17.80;99.90
8332;DHT22;4203;48.144;14.118;2023-09-30T07:00:14;17.90;99.90
8332;DHT22;4203;48.144;14.118;2023-09-30T07:02:42;18.00;99.90
8332;DHT22;4203;48.144;14.118;2023-09-30T07:05:11;18.20;99.90
8332;DHT22;4203;48.144;14.118;2023-09-30T07:07:40;18.30;99.90
8332;DHT22;4203;48.144;14.118;2023-09-30T07:10:09;18.40;99.90
8332;DHT22;4203;48.144;14.118;2023-09-30T07:12:37;18.60;99.90
8332;DHT22;4203;48.144;14.118;2023-09-30T07:15:06;18.70;99.90
8332;DHT22;4203;48.144;14.118;2023-09-30T07:17:34;18.80;99.90
8332;DHT22;4203;48.144;14.118;2023-09-30T07:20:02;19.00;99.90
8332;DHT22;4203;48.144;14.118;2023-09-30T07:22:30;19.10;99.90
8332;DHT22;4203;48.144;14.118;2023-09-30T07:24:59;19.20;99.90
8332;DHT22;4203;48.144;14.118;2023-09-30T07:27:27;19.20;99.90
8332;DHT22;4203;48.144;14.118;2023-09-30T07:29:55;19.20;99.90
8332;DHT22;4203;48.144;14.118;2023-09-30T07:32:22;19.30;99.90
8332;DHT22;4203;48.144;14.118;2023-09-30T07:34:49;19.30;99.90
8332;DHT22;4203;48.144;14.118;2023-09-30T07:37:17;19.40;99.90
8332;DHT22;4203;48.144;14.118;2023-09-30T07:39:46;19.30;99.90
8332;DHT22;4203;48.144;14.118;2023-09-30T07:42:14;19.20;99.90
8332;DHT22;4203;48.144;14.118;2023-09-30T07:44:42;19.20;99.90
8332;DHT22;4203;48.144;14.118;2023-09-30T07:47:10;19.20;99.90
8332;DHT22;4203;48.144;14.118;2023-09-30T07:49:38;19.20;99.90
8332;DHT22;4203;48.144;14.118;2023-09-30T07:52:05;19.20;99.90
8332;DHT22;4203;48.144;14.118;2023-09-30T07:54:33;19.20;99.90
8332;DHT22;4203;48.144;14.118;2023-09-30T07:57:00;19.20;99.90
8332;DHT22;4203;48.144;14.118;2023-09-30T07:59:29;19.20;99.90
8332;DHT22;4203;48.144;14.118;2023-09-30T08:01:56;19.30;99.90
8332;DHT22;4203;48.144;14.118;2023-09-30T08:04:25;19.30;99.90
8332;DHT22;4203;48.144;14.118;2023-09-30T08:06:52;19.30;99.90
8332;DHT22;4203;48.144;14.118;2023-09-30T08:09:19;19.30;99.90
8332;DHT22;4203;48.144;14.118;2023-09-30T08:11:49;19.30;99.90
8332;DHT22;4203;48.144;14.118;2023-09-30T08:14:17;19.40;99.90
8332;DHT22;4203;48.144;14.118;2023-09-30T08:16:45;19.80;99.90
8332;DHT22;4203;48.144;14.118;2023-09-30T08:19:15;20.20;99.90
8332;DHT22;4203;48.144;14.118;2023-09-30T08:21:42;20.50;99.90
8332;DHT22;4203;48.144;14.118;2023-09-30T08:24:09;20.70;99.90
8332;DHT22;4203;48.144;14.118;2023-09-30T08:26:36;20.70;99.90
8332;DHT22;4203;48.144;14.118;2023-09-30T08:29:04;20.60;99.90
8332;DHT22;4203;48.144;14.118;2023-09-30T08:31:32;20.40;99.90
8332;DHT22;4203;48.144;14.118;2023-09-30T08:34:01;20.30;99.90
8332;DHT22;4203;48.144;14.118;2023-09-30T08:36:29;20.20;99.90
8332;DHT22;4203;48.144;14.118;2023-09-30T08:38:57;20.10;99.90
8332;DHT22;4203;48.144;14.118;2023-09-30T08:41:31;20.10;99.90
8332;DHT22;4203;48.144;14.118;2023-09-30T08:44:01;20.00;99.90
8332;DHT22;4203;48.144;14.118;2023-09-30T08:46:30;20.10;99.90
8332;DHT22;4203;48.144;14.118;2023-09-30T08:48:58;20.20;99.90
8332;DHT22;4203;48.144;14.118;2023-09-30T08:51:29;20.30;99.90
8332;DHT22;4203;48.144;14.118;2023-09-30T08:53:57;20.60;99.90
8332;DHT22;4203;48.144;14.118;2023-09-30T08:56:27;21.10;99.90
8332;DHT22;4203;48.144;14.118;2023-09-30T08:58:56;21.50;99.90
8332;DHT22;4203;48.144;14.118;2023-09-30T09:01:25;21.90;99.90
8332;DHT22;4203;48.144;14.118;2023-09-30T09:03:53;22.00;99.90
8332;DHT22;4203;48.144;14.118;2023-09-30T09:06:20;22.00;99.90
8332;DHT22;4203;48.144;14.118;2023-09-30T09:08:49;22.20;99.90
8332;DHT22;4203;48.144;14.118;2023-09-30T09:11:17;22.30;99.90
8332;DHT22;4203;48.144;14.118;2023-09-30T09:13:49;22.50;99.90
8332;DHT22;4203;48.144;14.118;2023-09-30T09:16:18;22.80;99.90
8332;DHT22;4203;48.144;14.118;2023-09-30T09:18:45;23.10;99.90
8332;DHT22;4203;48.144;14.118;2023-09-30T09:21:14;23.10;99.90
8332;DHT22;4203;48.144;14.118;2023-09-30T09:23:44;23.40;99.90
8332;DHT22;4203;48.144;14.118;2023-09-30T09:26:22;23.80;99.90
8332;DHT22;4203;48.144;14.118;2023-09-30T09:28:56;24.30;99.90
8332;DHT22;4203;48.144;14.118;2023-09-30T09:31:25;24.90;99.90
8332;DHT22;4203;48.144;14.118;2023-09-30T09:33:53;25.30;99.90
8332;DHT22;4203;48.144;14.118;2023-09-30T09:36:21;25.30;99.90
8332;DHT22;4203;48.144;14.118;2023-09-30T09:39:05;25.10;99.90
8332;DHT22;4203;48.144;14.118;2023-09-30T09:41:49;24.90;99.90
8332;DHT22;4203;48.144;14.118;2023-09-30T09:44:17;24.80;99.90
8332;DHT22;4203;48.144;14.118;2023-09-30T09:46:48;24.80;99.90
8332;DHT22;4203;48.144;14.118;2023-09-30T09:49:16;24.90;99.90
8332;DHT22;4203;48.144;14.118;2023-09-30T09:51:45;25.10;99.90
8332;DHT22;4203;48.144;14.118;2023-09-30T09:54:13;25.20;99.90
8332;DHT22;4203;48.144;14.118;2023-09-30T09:56:44;25.30;99.90
8332;DHT22;4203;48.144;14.118;2023-09-30T09:59:12;25.70;99.90
8332;DHT22;4203;48.144;14.118;2023-09-30T10:01:40;25.80;99.90
8332;DHT22;4203;48.144;14.118;2023-09-30T10:04:08;26.20;99.90
8332;DHT22;4203;48.144;14.118;2023-09-30T10:06:39;26.50;99.90
8332;DHT22;4203;48.144;14.118;2023-09-30T10:09:10;26.80;99.90
8332;DHT22;4203;48.144;14.118;2023-09-30T10:11:38;26.90;99.90
8332;DHT22;4203;48.144;14.118;2023-09-30T10:14:09;26.60;99.90
8332;DHT22;4203;48.144;14.118;2023-09-30T10:16:56;26.50;99.90
8332;DHT22;4203;48.144;14.118;2023-09-30T10:19:23;26.30;99.90
8332;DHT22;4203;48.144;14.118;2023-09-30T10:22:22;26.10;99.90
8332;DHT22;4203;48.144;14.118;2023-09-30T10:24:51;26.00;99.90
8332;DHT22;4203;48.144;14.118;2023-09-30T10:27:35;26.40;99.90
8332;DHT22;4203;48.144;14.118;2023-09-30T10:30:10;26.80;99.90
8332;DHT22;4203;48.144;14.118;2023-09-30T10:33:09;26.80;99.90
8332;DHT22;4203;48.144;14.118;2023-09-30T10:35:50;26.60;99.90
8332;DHT22;4203;48.144;14.118;2023-09-30T10:38:38;26.30;99.90
8332;DHT22;4203;48.144;14.118;2023-09-30T10:41:09;26.00;99.90
8332;DHT22;4203;48.144;14.118;2023-09-30T10:43:41;25.90;99.90
8332;DHT22;4203;48.144;14.118;2023-09-30T10:46:32;26.00;99.90
8332;DHT22;4203;48.144;14.118;2023-09-30T10:49:17;26.30;99.90
8332;DHT22;4203;48.144;14.118;2023-09-30T10:51:44;26.40;99.90
8332;DHT22;4203;48.144;14.118;2023-09-30T10:54:13;26.80;99.90
8332;DHT22;4203;48.144;14.118;2023-09-30T10:56:40;27.00;99.90
8332;DHT22;4203;48.144;14.118;2023-09-30T10:59:08;27.20;99.90
8332;DHT22;4203;48.144;14.118;2023-09-30T11:01:36;27.30;99.90
8332;DHT22;4203;48.144;14.118;2023-09-30T11:04:05;27.50;99.90
8332;DHT22;4203;48.144;14.118;2023-09-30T11:06:34;27.80;99.90
8332;DHT22;4203;48.144;14.118;2023-09-30T11:09:02;27.80;99.90
8332;DHT22;4203;48.144;14.118;2023-09-30T11:11:34;28.00;99.90
8332;DHT22;4203;48.144;14.118;2023-09-30T11:14:03;28.00;99.90
8332;DHT22;4203;48.144;14.118;2023-09-30T11:16:43;28.20;99.90
8332;DHT22;4203;48.144;14.118;2023-09-30T11:19:11;28.60;99.90
8332;DHT22;4203;48.144;14.118;2023-09-30T11:21:38;28.70;99.90
8332;DHT22;4203;48.144;14.118;2023-09-30T11:24:07;28.50;99.90
8332;DHT22;4203;48.144;14.118;2023-09-30T11:26:35;28.50;99.90
8332;DHT22;4203;48.144;14.118;2023-09-30T11:29:05;28.50;99.90
8332;DHT22;4203;48.144;14.118;2023-09-30T11:31:33;28.30;99.90
8332;DHT22;4203;48.144;14.118;2023-09-30T11:34:02;28.10;99.90
8332;DHT22;4203;48.144;14.118;2023-09-30T11:36:30;28.10;99.90
8332;DHT22;4203;48.144;14.118;2023-09-30T11:38:58;28.00;99.90
8332;DHT22;4203;48.144;14.118;2023-09-30T11:41:33;28.00;99.90
8332;DHT22;4203;48.144;14.118;2023-09-30T11:44:04;28.00;99.90
8332;DHT22;4203;48.144;14.118;2023-09-30T11:46:47;27.90;99.90
8332;DHT22;4203;48.144;14.118;2023-09-30T11:49:26;28.00;99.90
8332;DHT22;4203;48.144;14.118;2023-09-30T11:51:54;28.10;99.90
8332;DHT22;4203;48.144;14.118;2023-09-30T11:54:21;28.10;99.90
8332;DHT22;4203;48.144;14.118;2023-09-30T11:56:49;27.80;99.90
8332;DHT22;4203;48.144;14.118;2023-09-30T11:59:17;27.70;99.90
8332;DHT22;4203;48.144;14.118;2023-09-30T12:01:48;27.90;99.90
8332;DHT22;4203;48.144;14.118;2023-09-30T12:04:17;28.40;99.90
8332;DHT22;4203;48.144;14.118;2023-09-30T12:06:46;28.50;99.90
8332;DHT22;4203;48.144;14.118;2023-09-30T12:09:14;28.50;99.90
8332;DHT22;4203;48.144;14.118;2023-09-30T12:11:43;28.80;99.90
8332;DHT22;4203;48.144;14.118;2023-09-30T12:14:11;29.10;99.90
8332;DHT22;4203;48.144;14.118;2023-09-30T12:16:39;29.40;99.90
8332;DHT22;4203;48.144;14.118;2023-09-30T12:19:07;29.50;99.90
8332;DHT22;4203;48.144;14.118;2023-09-30T12:21:35;29.00;99.90
8332;DHT22;4203;48.144;14.118;2023-09-30T12:24:04;28.70;99.90
8332;DHT22;4203;48.144;14.118;2023-09-30T12:26:33;28.60;99.90
8332;DHT22;4203;48.144;14.118;2023-09-30T12:29:00;29.00;99.90
8332;DHT22;4203;48.144;14.118;2023-09-30T12:31:27;29.10;99.90
8332;DHT22;4203;48.144;14.118;2023-09-30T12:33:55;29.40;99.90
8332;DHT22;4203;48.144;14.118;2023-09-30T12:36:22;29.00;99.90
8332;DHT22;4203;48.144;14.118;2023-09-30T12:38:50;28.80;99.90
8332;DHT22;4203;48.144;14.118;2023-09-30T12:41:19;28.50;99.90
8332;DHT22;4203;48.144;14.118;2023-09-30T12:43:48;28.40;99.90
8332;DHT22;4203;48.144;14.118;2023-09-30T12:46:16;28.30;99.90
8332;DHT22;4203;48.144;14.118;2023-09-30T12:48:44;28.10;99.90
8332;DHT22;4203;48.144;14.118;2023-09-30T12:51:11;27.80;99.90
8332;DHT22;4203;48.144;14.118;2023-09-30T12:53:39;27.50;99.90
8332;DHT22;4203;48.144;14.118;2023-09-30T12:56:06;27.50;99.90
8332;DHT22;4203;48.144;14.118;2023-09-30T12:58:35;27.70;99.90
8332;DHT22;4203;48.144;14.118;2023-09-30T13:01:04;27.80;99.90
8332;DHT22;4203;48.144;14.118;2023-09-30T13:03:32;27.90;99.90
8332;DHT22;4203;48.144;14.118;2023-09-30T13:05:59;27.90;99.90
8332;DHT22;4203;48.144;14.118;2023-09-30T13:08:26;28.00;99.90
8332;DHT22;4203;48.144;14.118;2023-09-30T13:10:59;28.20;99.90
8332;DHT22;4203;48.144;14.118;2023-09-30T13:13:28;28.10;99.90
8332;DHT22;4203;48.144;14.118;2023-09-30T13:15:58;28.20;99.90
8332;DHT22;4203;48.144;14.118;2023-09-30T13:18:25;28.50;99.90
8332;DHT22;4203;48.144;14.118;2023-09-30T13:20:53;28.90;99.90
8332;DHT22;4203;48.144;14.118;2023-09-30T13:23:21;29.10;99.90
8332;DHT22;4203;48.144;14.118;2023-09-30T13:25:48;29.30;99.90
8332;DHT22;4203;48.144;14.118;2023-09-30T13:28:15;29.40;99.90
8332;DHT22;4203;48.144;14.118;2023-09-30T13:30:43;29.40;99.90
8332;DHT22;4203;48.144;14.118;2023-09-30T13:33:12;29.10;99.90
8332;DHT22;4203;48.144;14.118;2023-09-30T13:35:40;29.00;99.90
8332;DHT22;4203;48.144;14.118;2023-09-30T13:38:07;29.00;99.90
8332;DHT22;4203;48.144;14.118;2023-09-30T13:40:34;29.00;99.90
8332;DHT22;4203;48.144;14.118;2023-09-30T13:43:04;28.90;99.80
8332;DHT22;4203;48.144;14.118;2023-09-30T13:45:31;28.80;99.90
8332;DHT22;4203;48.144;14.118;2023-09-30T13:48:00;28.70;99.90
8332;DHT22;4203;48.144;14.118;2023-09-30T13:50:29;28.40;99.90
8332;DHT22;4203;48.144;14.118;2023-09-30T13:52:56;28.20;99.90
8332;DHT22;4203;48.144;14.118;2023-09-30T13:55:26;28.00;99.90
8332;DHT22;4203;48.144;14.118;2023-09-30T13:57:53;27.40;99.90
8332;DHT22;4203;48.144;14.118;2023-09-30T14:00:21;27.10;99.90
8332;DHT22;4203;48.144;14.118;2023-09-30T14:02:48;27.10;99.90
8332;DHT22;4203;48.144;14.118;2023-09-30T14:05:18;26.80;99.90
8332;DHT22;4203;48.144;14.118;2023-09-30T14:07:47;26.70;99.90
8332;DHT22;4203;48.144;14.118;2023-09-30T14:10:15;26.80;99.90
8332;DHT22;4203;48.144;14.118;2023-09-30T14:12:42;26.90;99.90
8332;DHT22;4203;48.144;14.118;2023-09-30T14:15:10;26.90;99.90
8332;DHT22;4203;48.144;14.118;2023-09-30T14:17:38;26.60;99.90
8332;DHT22;4203;48.144;14.118;2023-09-30T14:20:07;26.20;99.90
8332;DHT22;4203;48.144;14.118;2023-09-30T14:22:34;25.70;99.90
8332;DHT22;4203;48.144;14.118;2023-09-30T14:25:04;25.30;99.90
8332;DHT22;4203;48.144;14.118;2023-09-30T14:27:31;24.80;99.90
8332;DHT22;4203;48.144;14.118;2023-09-30T14:29:58;24.30;99.90
8332;DHT22;4203;48.144;14.118;2023-09-30T14:32:26;23.90;99.90
8332;DHT22;4203;48.144;14.118;2023-09-30T14:34:53;23.60;99.90
8332;DHT22;4203;48.144;14.118;2023-09-30T14:37:21;23.30;99.90
8332;DHT22;4203;48.144;14.118;2023-09-30T14:39:48;23.20;99.90
8332;DHT22;4203;48.144;14.118;2023-09-30T14:42:16;23.20;99.90
8332;DHT22;4203;48.144;14.118;2023-09-30T14:44:45;23.10;99.90
8332;DHT22;4203;48.144;14.118;2023-09-30T14:47:12;23.10;99.90
8332;DHT22;4203;48.144;14.118;2023-09-30T14:49:40;23.00;99.90
8332;DHT22;4203;48.144;14.118;2023-09-30T14:52:08;22.80;99.90
8332;DHT22;4203;48.144;14.118;2023-09-30T14:54:35;22.70;99.90
8332;DHT22;4203;48.144;14.118;2023-09-30T14:57:03;22.50;99.90
8332;DHT22;4203;48.144;14.118;2023-09-30T14:59:34;22.50;99.90
8332;DHT22;4203;48.144;14.118;2023-09-30T15:02:01;22.50;99.90
8332;DHT22;4203;48.144;14.118;2023-09-30T15:04:29;22.50;99.90
8332;DHT22;4203;48.144;14.118;2023-09-30T15:06:58;22.30;99.90
8332;DHT22;4203;48.144;14.118;2023-09-30T15:09:26;22.20;99.90
8332;DHT22;4203;48.144;14.118;2023-09-30T15:11:54;22.10;99.90
8332;DHT22;4203;48.144;14.118;2023-09-30T15:14:21;22.00;99.90
8332;DHT22;4203;48.144;14.118;2023-09-30T15:16:50;22.00;99.90
8332;DHT22;4203;48.144;14.118;2023-09-30T15:19:17;21.90;99.90
8332;DHT22;4203;48.144;14.118;2023-09-30T15:21:44;21.90;99.90
8332;DHT22;4203;48.144;14.118;2023-09-30T15:24:12;21.80;99.90
8332;DHT22;4203;48.144;14.118;2023-09-30T15:26:39;21.70;99.90
8332;DHT22;4203;48.144;14.118;2023-09-30T15:29:06;21.70;99.90
8332;DHT22;4203;48.144;14.118;2023-09-30T15:31:34;21.60;99.90
8332;DHT22;4203;48.144;14.118;2023-09-30T15:34:03;21.40;99.90
8332;DHT22;4203;48.144;14.118;2023-09-30T15:36:31;21.40;99.90
8332;DHT22;4203;48.144;14.118;2023-09-30T15:38:59;21.40;99.90
8332;DHT22;4203;48.144;14.118;2023-09-30T15:41:27;21.20;99.90
8332;DHT22;4203;48.144;14.118;2023-09-30T15:43:58;21.10;99.90
8332;DHT22;4203;48.144;14.118;2023-09-30T15:46:26;21.00;99.90
8332;DHT22;4203;48.144;14.118;2023-09-30T15:48:53;20.90;99.90
8332;DHT22;4203;48.144;14.118;2023-09-30T15:51:22;20.80;99.90
8332;DHT22;4203;48.144;14.118;2023-09-30T15:53:49;20.70;99.90
8332;DHT22;4203;48.144;14.118;2023-09-30T15:56:16;20.60;99.90